Burnt House, West Virginia
Current Conditions -  °F | °C
As of 8:23 AM on Tuesday 21 Oct 2014 (Local Time) from KPKB Reporting Station
Haze Haze  
Wind Chill: 50°   Ceiling: 1000
Heat Index: 50°   Visibility: 5mi
Dew Point: 48°   Wind: 0mph
Humidity: 93%   Direction: NA
Pressure: 29.92"   Gusts: NA
Location:  39.0682°N, 81.0671°W
Report Text: KPKB 211223Z 00000KT 5SM BR BKN010 BKN025 OVC034 10/09 A2992 RMK AO2 CIG 007V011 T01000089
Loading
Personal Weather Stations






























Interactive Weather Map
Tropical Storm Tracking
New forecast layout! Learn more

10-Day Weather Forecast

Advertisements
Track Severe Weather on mobile